createdAt,value
2023-03-05T00:00:33.953Z,1009.30
2023-03-05T00:01:33.945Z,1009.20
2023-03-05T00:02:33.982Z,1009.25
2023-03-05T00:03:33.938Z,1009.23
2023-03-05T00:04:33.888Z,1009.26
2023-03-05T00:05:33.863Z,1009.22
2023-03-05T00:06:33.844Z,1009.19
2023-03-05T00:07:33.845Z,1009.23
2023-03-05T00:08:33.843Z,1009.19
2023-03-05T00:09:35.839Z,1009.20
2023-03-05T00:10:33.809Z,1009.16
2023-03-05T00:11:33.811Z,1009.23
2023-03-05T00:12:33.759Z,1009.10
2023-03-05T00:13:33.767Z,1009.11
2023-03-05T00:14:33.762Z,1009.07
2023-03-05T00:15:33.732Z,1009.07
2023-03-05T00:16:33.714Z,1009.03
2023-03-05T00:17:33.697Z,1009.06
2023-03-05T00:18:33.704Z,1008.99
2023-03-05T00:19:33.690Z,1009.02
2023-03-05T00:20:34.478Z,1008.96
2023-03-05T00:21:33.680Z,1009.03
2023-03-05T00:22:33.691Z,1008.99
2023-03-05T00:23:33.641Z,1009.01
2023-03-05T00:24:33.661Z,1008.99
2023-03-05T00:25:33.604Z,1008.99
2023-03-05T00:26:33.603Z,1009.07
2023-03-05T00:27:33.566Z,1009.03
2023-03-05T00:28:33.559Z,1008.94
2023-03-05T00:29:33.561Z,1008.97
2023-03-05T00:30:33.585Z,1008.89
2023-03-05T00:31:33.585Z,1008.95
2023-03-05T00:32:33.548Z,1008.93
2023-03-05T00:33:33.512Z,1008.87
2023-03-05T00:34:33.491Z,1008.83
2023-03-05T00:35:35.170Z,1008.91
2023-03-05T00:36:33.473Z,1008.88
2023-03-05T00:37:33.458Z,1008.92
2023-03-05T00:38:33.452Z,1008.93
2023-03-05T00:39:33.425Z,1008.85
2023-03-05T00:40:33.487Z,1008.87
2023-03-05T00:41:33.393Z,1008.89
2023-03-05T00:42:33.408Z,1008.80
2023-03-05T00:43:33.379Z,1008.86
2023-03-05T00:44:33.378Z,1008.91
2023-03-05T00:45:33.363Z,1008.85
2023-03-05T00:46:33.462Z,1008.75
2023-03-05T00:47:33.352Z,1008.81
2023-03-05T00:48:33.334Z,1008.77
2023-03-05T00:49:33.289Z,1008.70
2023-03-05T00:50:33.303Z,1008.71
2023-03-05T00:51:33.283Z,1008.65
2023-03-05T00:52:33.276Z,1008.70
2023-03-05T00:53:33.262Z,1008.63
2023-03-05T00:54:33.234Z,1008.62
2023-03-05T00:55:33.217Z,1008.63
2023-03-05T00:56:33.220Z,1008.56
2023-03-05T00:57:33.219Z,1008.65
2023-03-05T00:58:33.179Z,1008.66
2023-03-05T00:59:33.181Z,1008.51
2023-03-05T01:00:33.185Z,1008.52
2023-03-05T01:01:33.185Z,1008.50
2023-03-05T01:02:34.825Z,1008.41
2023-03-05T01:03:33.137Z,1008.47
2023-03-05T01:04:33.135Z,1008.48
2023-03-05T01:05:33.130Z,1008.45
2023-03-05T01:06:33.091Z,1008.45
2023-03-05T01:07:33.057Z,1008.46
2023-03-05T01:08:33.077Z,1008.44
2023-03-05T01:09:33.024Z,1008.42
2023-03-05T01:10:33.022Z,1008.40
2023-03-05T01:11:33.005Z,1008.35
2023-03-05T01:12:33.001Z,1008.32
2023-03-05T01:13:32.988Z,1008.34
2023-03-05T01:14:32.978Z,1008.48
2023-03-05T01:15:32.949Z,1008.40
2023-03-05T01:16:32.985Z,1008.32
2023-03-05T01:17:32.931Z,1008.36
2023-03-05T01:18:32.908Z,1008.36
2023-03-05T01:19:32.886Z,1008.39
2023-03-05T01:20:32.908Z,1008.36
2023-03-05T01:21:32.901Z,1008.28
2023-03-05T01:22:32.859Z,1008.20
2023-03-05T01:23:32.835Z,1008.25
2023-03-05T01:24:32.831Z,1008.22
2023-03-05T01:25:32.825Z,1008.26
2023-03-05T01:26:32.816Z,1008.25
2023-03-05T01:27:32.780Z,1008.27
2023-03-05T01:28:32.785Z,1008.30
2023-03-05T01:29:32.764Z,1008.23
2023-03-05T01:30:32.794Z,1008.21
2023-03-05T01:31:32.774Z,1008.29
2023-03-05T01:32:34.695Z,1008.16
2023-03-05T01:33:32.705Z,1008.15
2023-03-05T01:34:32.710Z,1008.13
2023-03-05T01:35:32.727Z,1008.18
2023-03-05T01:36:32.694Z,1008.26
2023-03-05T01:37:32.662Z,1008.23
2023-03-05T01:38:32.652Z,1008.15
2023-03-05T01:39:32.635Z,1008.10
2023-03-05T01:40:32.674Z,1008.05
2023-03-05T01:41:32.609Z,1008.03
2023-03-05T01:42:32.590Z,1008.12
2023-03-05T01:43:32.591Z,1008.00
2023-03-05T01:44:32.584Z,1008.15
2023-03-05T01:45:32.623Z,1008.07
2023-03-05T01:46:32.567Z,1008.03
2023-03-05T01:47:32.532Z,1008.03
2023-03-05T01:48:32.529Z,1008.05
2023-03-05T01:49:32.513Z,1007.96
2023-03-05T01:50:32.504Z,1007.94
2023-03-05T01:51:32.502Z,1007.97
2023-03-05T01:52:32.482Z,1008.02
2023-03-05T01:53:32.462Z,1007.95
2023-03-05T01:54:32.453Z,1008.06
2023-03-05T01:55:32.419Z,1007.99
2023-03-05T01:56:32.405Z,1007.93
2023-03-05T01:57:32.402Z,1007.91
2023-03-05T01:58:32.399Z,1007.92
2023-03-05T01:59:32.366Z,1007.91
2023-03-05T02:00:32.392Z,1007.94
2023-03-05T02:01:32.430Z,1008.03
2023-03-05T02:02:32.347Z,1007.87
2023-03-05T02:03:32.342Z,1007.87
2023-03-05T02:04:32.337Z,1007.97
2023-03-05T02:05:32.313Z,1007.96
2023-03-05T02:06:32.274Z,1007.91
2023-03-05T02:07:32.292Z,1007.89
2023-03-05T02:08:32.255Z,1007.89
2023-03-05T02:09:32.246Z,1007.83
2023-03-05T02:10:32.253Z,1007.89
2023-03-05T02:11:32.230Z,1007.94
2023-03-05T02:12:32.216Z,1007.83
2023-03-05T02:13:32.212Z,1007.89
2023-03-05T02:14:32.187Z,1007.95
2023-03-05T02:15:32.157Z,1007.84
2023-03-05T02:16:32.234Z,1007.82
2023-03-05T02:17:32.152Z,1007.82
2023-03-05T02:18:32.156Z,1007.91
2023-03-05T02:19:32.142Z,1007.81
2023-03-05T02:20:32.110Z,1007.92
2023-03-05T02:21:32.090Z,1007.77
2023-03-05T02:22:32.088Z,1007.92
2023-03-05T02:23:32.058Z,1007.84
2023-03-05T02:24:32.058Z,1007.79
2023-03-05T02:25:32.030Z,1007.81
2023-03-05T02:26:32.028Z,1007.73
2023-03-05T02:27:32.009Z,1007.74
2023-03-05T02:28:32.009Z,1007.86
2023-03-05T02:29:32.005Z,1007.86
2023-03-05T02:30:32.002Z,1007.77
2023-03-05T02:31:32.009Z,1007.91
2023-03-05T02:32:32.002Z,1007.73
2023-03-05T02:33:31.960Z,1007.78
2023-03-05T02:34:31.923Z,1007.73
2023-03-05T02:35:31.950Z,1007.77
2023-03-05T02:36:31.915Z,1007.71
2023-03-05T02:37:31.880Z,1007.85
2023-03-05T02:38:31.881Z,1007.71
2023-03-05T02:39:31.872Z,1007.66
2023-03-05T02:40:31.857Z,1007.68
2023-03-05T02:41:31.845Z,1007.65
2023-03-05T02:42:31.833Z,1007.68
2023-03-05T02:43:31.832Z,1007.63
2023-03-05T02:44:31.816Z,1007.60
2023-03-05T02:45:31.822Z,1007.62
2023-03-05T02:46:31.783Z,1007.62
2023-03-05T02:47:31.782Z,1007.54
2023-03-05T02:48:31.751Z,1007.73
2023-03-05T02:49:31.756Z,1007.67
2023-03-05T02:50:31.768Z,1007.75
2023-03-05T02:51:31.714Z,1007.57
2023-03-05T02:52:31.693Z,1007.62
2023-03-05T02:53:31.684Z,1007.60
2023-03-05T02:54:31.696Z,1007.58
2023-03-05T02:55:31.662Z,1007.62
2023-03-05T02:56:31.697Z,1007.65
2023-03-05T02:57:31.627Z,1007.63
2023-03-05T02:58:31.624Z,1007.58
2023-03-05T02:59:31.670Z,1007.56
2023-03-05T03:00:31.643Z,1007.53
2023-03-05T03:01:31.617Z,1007.44
2023-03-05T03:02:31.566Z,1007.50
2023-03-05T03:03:31.589Z,1007.48
2023-03-05T03:04:31.558Z,1007.50
2023-03-05T03:05:31.542Z,1007.47
2023-03-05T03:06:31.537Z,1007.47
2023-03-05T03:07:31.513Z,1007.43
2023-03-05T03:08:31.528Z,1007.43
2023-03-05T03:09:31.482Z,1007.42
2023-03-05T03:10:31.478Z,1007.41
2023-03-05T03:11:31.452Z,1007.40
2023-03-05T03:12:31.453Z,1007.34
2023-03-05T03:13:31.430Z,1007.43
2023-03-05T03:14:31.428Z,1007.39
2023-03-05T03:15:31.402Z,1007.36
2023-03-05T03:16:31.429Z,1007.33
2023-03-05T03:17:31.380Z,1007.44
2023-03-05T03:18:31.375Z,1007.42
2023-03-05T03:19:31.350Z,1007.40
2023-03-05T03:20:31.339Z,1007.41
2023-03-05T03:21:31.344Z,1007.34
2023-03-05T03:22:31.337Z,1007.36
2023-03-05T03:23:31.329Z,1007.33
2023-03-05T03:24:31.280Z,1007.36
2023-03-05T03:25:31.290Z,1007.24
2023-03-05T03:26:31.276Z,1007.26
2023-03-05T03:27:31.260Z,1007.41
2023-03-05T03:28:31.263Z,1007.28
2023-03-05T03:29:31.239Z,1007.32
2023-03-05T03:30:31.257Z,1007.29
2023-03-05T03:31:31.201Z,1007.22
2023-03-05T03:32:31.213Z,1007.17
2023-03-05T03:33:31.182Z,1007.23
2023-03-05T03:34:31.196Z,1007.18
2023-03-05T03:35:31.175Z,1007.12
2023-03-05T03:36:31.145Z,1007.13
2023-03-05T03:37:31.136Z,1007.19
2023-03-05T03:38:31.124Z,1007.25
2023-03-05T03:39:31.106Z,1007.14
2023-03-05T03:40:31.117Z,1007.17
2023-03-05T03:41:31.077Z,1007.07
2023-03-05T03:42:31.061Z,1007.08
2023-03-05T03:43:31.064Z,1007.15
2023-03-05T03:44:31.050Z,1007.11
2023-03-05T03:45:31.013Z,1007.14
2023-03-05T03:46:31.123Z,1006.95
2023-03-05T03:47:31.014Z,1007.07
2023-03-05T03:48:30.986Z,1007.00
2023-03-05T03:49:30.967Z,1007.11
2023-03-05T03:50:30.971Z,1007.05
2023-03-05T03:51:30.946Z,1006.98
2023-03-05T03:52:30.944Z,1006.99
2023-03-05T03:53:30.938Z,1007.01
2023-03-05T03:54:30.912Z,1007.01
2023-03-05T03:55:30.897Z,1007.00
2023-03-05T03:56:30.902Z,1007.01
2023-03-05T03:57:30.863Z,1006.94
2023-03-05T03:58:30.863Z,1006.90
2023-03-05T03:59:30.852Z,1006.85
2023-03-05T04:00:30.834Z,1007.01
2023-03-05T04:01:30.835Z,1006.89
2023-03-05T04:02:30.818Z,1006.92
2023-03-05T04:03:30.794Z,1006.91
2023-03-05T04:04:30.797Z,1006.81
2023-03-05T04:05:30.788Z,1006.96
2023-03-05T04:06:30.768Z,1006.88
2023-03-05T04:07:30.765Z,1006.86
2023-03-05T04:08:30.724Z,1006.85
2023-03-05T04:09:30.723Z,1006.88
2023-03-05T04:10:30.770Z,1007.01
2023-03-05T04:11:30.683Z,1007.07
2023-03-05T04:12:30.695Z,1006.90
2023-03-05T04:13:30.678Z,1006.91
2023-03-05T04:14:30.656Z,1006.84
2023-03-05T04:15:30.633Z,1006.85
2023-03-05T04:16:30.635Z,1006.93
2023-03-05T04:17:30.947Z,1006.82
2023-03-05T04:18:32.477Z,1006.75
2023-03-05T04:19:30.605Z,1006.78
2023-03-05T04:20:30.595Z,1006.75
2023-03-05T04:21:30.573Z,1006.76
2023-03-05T04:22:30.550Z,1006.84
2023-03-05T04:23:30.547Z,1006.82
2023-03-05T04:24:30.557Z,1006.97
2023-03-05T04:25:30.529Z,1006.92
2023-03-05T04:26:30.538Z,1006.71
2023-03-05T04:27:30.506Z,1006.71
2023-03-05T04:28:30.501Z,1006.63
2023-03-05T04:29:30.474Z,1006.73
2023-03-05T04:30:30.439Z,1006.70
2023-03-05T04:31:30.490Z,1006.71
2023-03-05T04:32:30.474Z,1006.65
2023-03-05T04:33:30.421Z,1006.64
2023-03-05T04:34:30.389Z,1006.80
2023-03-05T04:35:30.392Z,1006.65
2023-03-05T04:36:30.361Z,1006.57
2023-03-05T04:37:30.356Z,1006.60
2023-03-05T04:38:30.362Z,1006.60
2023-03-05T04:39:30.339Z,1006.62
2023-03-05T04:40:30.306Z,1006.61
2023-03-05T04:41:30.308Z,1006.57
2023-03-05T04:42:30.298Z,1006.62
2023-03-05T04:43:30.297Z,1006.66
2023-03-05T04:44:30.289Z,1006.72
2023-03-05T04:45:30.246Z,1006.58
2023-03-05T04:46:30.310Z,1006.68
2023-03-05T04:47:30.238Z,1006.55
2023-03-05T04:48:30.228Z,1006.64
2023-03-05T04:49:30.193Z,1006.56
2023-03-05T04:50:30.183Z,1006.54
2023-03-05T04:51:30.188Z,1006.46
2023-03-05T04:52:30.154Z,1006.41
2023-03-05T04:53:30.150Z,1006.42
2023-03-05T04:54:30.149Z,1006.36
2023-03-05T04:55:30.122Z,1006.53
2023-03-05T04:56:30.100Z,1006.55
2023-03-05T04:57:30.105Z,1006.52
2023-03-05T04:58:30.071Z,1006.38
2023-03-05T04:59:30.081Z,1006.39
2023-03-05T05:00:30.066Z,1006.55
2023-03-05T05:01:30.126Z,1006.57
2023-03-05T05:02:30.044Z,1006.56
2023-03-05T05:03:30.014Z,1006.45
2023-03-05T05:04:30.015Z,1006.41
2023-03-05T05:05:30.023Z,1006.39
2023-03-05T05:06:29.989Z,1006.42
2023-03-05T05:07:29.963Z,1006.49
2023-03-05T05:08:29.960Z,1006.45
2023-03-05T05:09:29.958Z,1006.51
2023-03-05T05:10:29.926Z,1006.45
2023-03-05T05:11:30.053Z,1006.62
2023-03-05T05:12:29.922Z,1006.44
2023-03-05T05:13:29.917Z,1006.52
2023-03-05T05:14:29.888Z,1006.55
2023-03-05T05:15:29.876Z,1006.56
2023-03-05T05:16:29.895Z,1006.49
2023-03-05T05:17:29.857Z,1006.64
2023-03-05T05:18:29.848Z,1006.53
2023-03-05T05:19:29.827Z,1006.42
2023-03-05T05:20:29.850Z,1006.52
2023-03-05T05:21:29.790Z,1006.42
2023-03-05T05:22:29.790Z,1006.57
2023-03-05T05:23:29.776Z,1006.55
2023-03-05T05:24:29.759Z,1006.52
2023-03-05T05:25:29.755Z,1006.46
2023-03-05T05:26:29.760Z,1006.47
2023-03-05T05:27:36.753Z,1006.44
2023-03-05T05:28:29.719Z,1006.37
2023-03-05T05:29:29.711Z,1006.44
2023-03-05T05:30:29.688Z,1006.52
2023-03-05T05:31:29.749Z,1006.48
2023-03-05T05:32:29.680Z,1006.45
2023-03-05T05:33:29.649Z,1006.51
2023-03-05T05:34:29.628Z,1006.47
2023-03-05T05:35:29.691Z,1006.40
2023-03-05T05:36:29.625Z,1006.40
2023-03-05T05:37:29.612Z,1006.36
2023-03-05T05:38:29.580Z,1006.40
2023-03-05T05:39:29.578Z,1006.54
2023-03-05T05:40:29.570Z,1006.43
2023-03-05T05:41:29.568Z,1006.42
2023-03-05T05:42:29.588Z,1006.56
2023-03-05T05:43:29.521Z,1006.45
2023-03-05T05:44:29.504Z,1006.46
2023-03-05T05:45:29.673Z,1006.48
2023-03-05T05:46:29.525Z,1006.39
2023-03-05T05:47:29.512Z,1006.45
2023-03-05T05:48:29.461Z,1006.44
2023-03-05T05:49:29.459Z,1006.41
2023-03-05T05:50:29.443Z,1006.48
2023-03-05T05:51:29.456Z,1006.60
2023-03-05T05:52:29.437Z,1006.49
2023-03-05T05:53:29.404Z,1006.51
2023-03-05T05:54:29.391Z,1006.45
2023-03-05T05:55:29.376Z,1006.52
2023-03-05T05:56:29.373Z,1006.50
2023-03-05T05:57:29.361Z,1006.64
2023-03-05T05:58:29.368Z,1006.59
2023-03-05T05:59:29.335Z,1006.57
2023-03-05T06:00:29.316Z,1006.52
2023-03-05T06:01:29.320Z,1006.60
2023-03-05T06:02:29.308Z,1006.62
2023-03-05T06:03:29.326Z,1006.61
2023-03-05T06:04:29.292Z,1006.69
2023-03-05T06:05:29.242Z,1006.56
2023-03-05T06:06:29.244Z,1006.60
2023-03-05T06:07:29.244Z,1006.60
2023-03-05T06:08:29.207Z,1006.49
2023-03-05T06:09:29.228Z,1006.50
2023-03-05T06:10:29.194Z,1006.52
2023-03-05T06:11:29.205Z,1006.69
2023-03-05T06:12:29.201Z,1006.51
2023-03-05T06:13:29.155Z,1006.64
2023-03-05T06:14:29.133Z,1006.54
2023-03-05T06:15:29.145Z,1006.64
2023-03-05T06:16:29.189Z,1006.53
2023-03-05T06:17:31.046Z,1006.54
2023-03-05T06:18:29.118Z,1006.51
2023-03-05T06:19:29.106Z,1006.52
2023-03-05T06:20:29.052Z,1006.49
2023-03-05T06:21:29.029Z,1006.45
2023-03-05T06:22:29.031Z,1006.48
2023-03-05T06:23:29.025Z,1006.54
2023-03-05T06:24:29.065Z,1006.52
2023-03-05T06:25:28.986Z,1006.44
2023-03-05T06:26:29.014Z,1006.62
2023-03-05T06:27:28.969Z,1006.43
2023-03-05T06:28:28.963Z,1006.48
2023-03-05T06:29:28.989Z,1006.54
2023-03-05T06:30:28.974Z,1006.61
2023-03-05T06:31:28.947Z,1006.51
2023-03-05T06:32:28.957Z,1006.53
2023-03-05T06:33:28.891Z,1006.43
2023-03-05T06:34:28.919Z,1006.46
2023-03-05T06:35:28.904Z,1006.43
2023-03-05T06:36:28.869Z,1006.43
2023-03-05T06:37:28.869Z,1006.37
2023-03-05T06:38:28.829Z,1006.51
2023-03-05T06:39:28.845Z,1006.44
2023-03-05T06:40:28.842Z,1006.43
2023-03-05T06:41:28.828Z,1006.46
2023-03-05T06:42:28.769Z,1006.35
2023-03-05T06:43:28.783Z,1006.48
2023-03-05T06:44:28.767Z,1006.44
2023-03-05T06:45:28.774Z,1006.43
2023-03-05T06:46:28.826Z,1006.43
2023-03-05T06:47:28.710Z,1006.47
2023-03-05T06:48:28.702Z,1006.45
2023-03-05T06:49:28.696Z,1006.39
2023-03-05T06:50:28.838Z,1006.41
2023-03-05T06:51:28.659Z,1006.43
2023-03-05T06:52:28.671Z,1006.48
2023-03-05T06:53:28.638Z,1006.39
2023-03-05T06:54:28.617Z,1006.31
2023-03-05T06:55:28.598Z,1006.40
2023-03-05T06:56:28.625Z,1006.33
2023-03-05T06:57:28.601Z,1006.36
2023-03-05T06:58:28.714Z,1006.29
2023-03-05T06:59:28.651Z,1006.34
2023-03-05T07:00:28.577Z,1006.30
2023-03-05T07:01:28.682Z,1006.27
2023-03-05T07:02:28.629Z,1006.31
2023-03-05T07:03:28.603Z,1006.34
2023-03-05T07:04:28.513Z,1006.35
2023-03-05T07:05:28.503Z,1006.44
2023-03-05T07:06:28.526Z,1006.38
2023-03-05T07:07:28.510Z,1006.35
2023-03-05T07:08:28.466Z,1006.36
2023-03-05T07:09:28.422Z,1006.31
2023-03-05T07:10:28.407Z,1006.49
2023-03-05T07:11:28.431Z,1006.44
2023-03-05T07:12:28.390Z,1006.35
2023-03-05T07:13:28.374Z,1006.31
2023-03-05T07:14:28.356Z,1006.32
2023-03-05T07:15:28.367Z,1006.35
2023-03-05T07:16:28.325Z,1006.37
2023-03-05T07:17:28.379Z,1006.39
2023-03-05T07:18:28.314Z,1006.50
2023-03-05T07:19:28.296Z,1006.56
2023-03-05T07:20:28.300Z,1006.41
2023-03-05T07:21:28.271Z,1006.43
2023-03-05T07:22:28.269Z,1006.48
2023-03-05T07:23:28.237Z,1006.48
2023-03-05T07:24:28.244Z,1006.42
2023-03-05T07:25:28.229Z,1006.44
2023-03-05T07:26:28.218Z,1006.40
2023-03-05T07:27:28.185Z,1006.42
2023-03-05T07:28:28.184Z,1006.39
2023-03-05T07:29:28.196Z,1006.39
2023-03-05T07:30:28.148Z,1006.53
2023-03-05T07:31:28.153Z,1006.39
2023-03-05T07:32:28.219Z,1006.46
2023-03-05T07:33:28.129Z,1006.39
2023-03-05T07:34:28.132Z,1006.43
2023-03-05T07:35:28.173Z,1006.65
2023-03-05T07:36:28.080Z,1006.55
2023-03-05T07:37:28.092Z,1006.53
2023-03-05T07:38:28.104Z,1006.52
2023-03-05T07:39:28.084Z,1006.50
2023-03-05T07:40:28.103Z,1006.42
2023-03-05T07:41:28.053Z,1006.42
2023-03-05T07:42:28.017Z,1006.59
2023-03-05T07:43:27.993Z,1006.50
2023-03-05T07:44:27.969Z,1006.48
2023-03-05T07:45:27.993Z,1006.36
2023-03-05T07:46:28.047Z,1006.51
2023-03-05T07:47:27.952Z,1006.46
2023-03-05T07:48:27.961Z,1006.50
2023-03-05T07:49:27.915Z,1006.50
2023-03-05T07:50:27.990Z,1006.42
2023-03-05T07:51:27.928Z,1006.50
2023-03-05T07:52:27.870Z,1006.43
2023-03-05T07:53:27.873Z,1006.44
2023-03-05T07:54:27.848Z,1006.56
2023-03-05T07:55:27.905Z,1006.48
2023-03-05T07:56:27.848Z,1006.64
2023-03-05T07:57:27.850Z,1006.42
2023-03-05T07:58:27.805Z,1006.43
2023-03-05T07:59:27.797Z,1006.58
2023-03-05T08:00:27.808Z,1006.60
2023-03-05T08:01:27.776Z,1006.46
2023-03-05T08:02:27.817Z,1006.41
2023-03-05T08:03:27.727Z,1006.43
2023-03-05T08:04:27.813Z,1006.34
2023-03-05T08:05:27.740Z,1006.40
2023-03-05T08:06:27.774Z,1006.42
2023-03-05T08:07:27.700Z,1006.42
2023-03-05T08:08:27.673Z,1006.54
2023-03-05T08:09:27.647Z,1006.45
2023-03-05T08:10:27.654Z,1006.44
2023-03-05T08:11:27.675Z,1006.48
2023-03-05T08:12:27.636Z,1006.41
2023-03-05T08:13:27.621Z,1006.47
2023-03-05T08:14:27.575Z,1006.43
2023-03-05T08:15:27.586Z,1006.48
2023-03-05T08:16:27.565Z,1006.46
2023-03-05T08:17:27.548Z,1006.43
2023-03-05T08:18:27.573Z,1006.43
2023-03-05T08:19:27.539Z,1006.46
2023-03-05T08:20:27.553Z,1006.45
2023-03-05T08:21:27.541Z,1006.43
2023-03-05T08:22:27.494Z,1006.53
2023-03-05T08:23:27.503Z,1006.51
2023-03-05T08:24:27.496Z,1006.45
2023-03-05T08:25:27.468Z,1006.30
2023-03-05T08:26:27.469Z,1006.33
2023-03-05T08:27:27.452Z,1006.31
2023-03-05T08:28:27.454Z,1006.33
2023-03-05T08:29:27.477Z,1006.35
2023-03-05T08:30:27.704Z,1006.33
2023-03-05T08:31:27.438Z,1006.24
2023-03-05T08:32:27.408Z,1006.36
2023-03-05T08:33:28.782Z,1006.22
2023-03-05T08:34:27.373Z,1006.23
2023-03-05T08:35:27.385Z,1006.28
2023-03-05T08:36:27.334Z,1006.15
2023-03-05T08:37:27.301Z,1006.19
2023-03-05T08:38:27.287Z,1006.20
2023-03-05T08:39:27.306Z,1006.14
2023-03-05T08:40:27.278Z,1006.17
2023-03-05T08:41:27.252Z,1006.16
2023-03-05T08:42:27.820Z,1006.25
2023-03-05T08:43:27.251Z,1006.21
2023-03-05T08:44:27.241Z,1006.19
2023-03-05T08:45:27.233Z,1006.17
2023-03-05T08:46:27.287Z,1006.14
2023-03-05T08:47:27.217Z,1006.26
2023-03-05T08:48:27.272Z,1006.21
2023-03-05T08:49:27.154Z,1006.34
2023-03-05T08:50:27.179Z,1006.14
2023-03-05T08:51:27.164Z,1006.12
2023-03-05T08:52:27.124Z,1006.14
2023-03-05T08:53:27.123Z,1006.11
2023-03-05T08:54:27.100Z,1006.13
2023-03-05T08:55:27.060Z,1006.16
2023-03-05T08:56:27.076Z,1006.14
2023-03-05T08:57:27.055Z,1006.08
2023-03-05T08:58:27.056Z,1006.08
2023-03-05T08:59:27.038Z,1006.03
2023-03-05T09:00:27.042Z,1005.99
2023-03-05T09:01:27.011Z,1005.98
2023-03-05T09:02:27.106Z,1005.95
2023-03-05T09:03:26.984Z,1005.95
2023-03-05T09:04:27.029Z,1006.10
2023-03-05T09:05:26.936Z,1006.08
2023-03-05T09:06:26.940Z,1005.97
2023-03-05T09:07:26.918Z,1005.97
2023-03-05T09:08:26.956Z,1005.90
2023-03-05T09:09:26.896Z,1005.91
2023-03-05T09:10:26.869Z,1005.94
2023-03-05T09:11:26.881Z,1005.87
2023-03-05T09:12:26.855Z,1005.77
2023-03-05T09:13:26.868Z,1005.84
2023-03-05T09:14:26.829Z,1005.90
2023-03-05T09:15:26.843Z,1005.88
2023-03-05T09:16:26.883Z,1005.82
2023-03-05T09:17:26.812Z,1005.99
2023-03-05T09:18:26.806Z,1005.76
2023-03-05T09:19:26.745Z,1005.85
2023-03-05T09:20:26.746Z,1005.75
2023-03-05T09:21:26.748Z,1005.71
2023-03-05T09:22:26.728Z,1005.77
2023-03-05T09:23:26.704Z,1005.73
2023-03-05T09:24:26.692Z,1005.72
2023-03-05T09:25:26.702Z,1005.73
2023-03-05T09:26:26.708Z,1005.76
2023-03-05T09:27:26.687Z,1005.70
2023-03-05T09:28:26.677Z,1005.64
2023-03-05T09:29:26.628Z,1005.88
2023-03-05T09:30:26.647Z,1005.86
2023-03-05T09:31:26.657Z,1005.69
2023-03-05T09:32:26.613Z,1005.72
2023-03-05T09:33:26.596Z,1005.69
2023-03-05T09:34:26.576Z,1005.66
2023-03-05T09:35:26.638Z,1005.74
2023-03-05T09:36:26.556Z,1005.73
2023-03-05T09:37:26.504Z,1005.75
2023-03-05T09:38:27.327Z,1005.76
2023-03-05T09:39:26.554Z,1005.76
2023-03-05T09:40:26.527Z,1005.76
2023-03-05T09:41:26.519Z,1005.75
2023-03-05T09:42:26.496Z,1005.75
2023-03-05T09:43:26.539Z,1005.80
2023-03-05T09:44:26.477Z,1005.68
2023-03-05T09:45:26.429Z,1005.70
2023-03-05T09:46:26.436Z,1005.68
2023-03-05T09:47:26.403Z,1005.69
2023-03-05T09:48:26.399Z,1005.71
2023-03-05T09:49:26.407Z,1005.72
2023-03-05T09:50:26.387Z,1005.73
2023-03-05T09:51:26.420Z,1005.68
2023-03-05T09:52:26.388Z,1005.63
2023-03-05T09:53:26.342Z,1005.61
2023-03-05T09:54:26.332Z,1005.67
2023-03-05T09:55:26.325Z,1005.70
2023-03-05T09:56:26.290Z,1005.74
2023-03-05T09:57:26.278Z,1005.65
2023-03-05T09:58:26.308Z,1005.60
2023-03-05T09:59:26.271Z,1005.62
2023-03-05T10:00:26.245Z,1005.56
2023-03-05T10:01:26.206Z,1005.63
2023-03-05T10:02:26.228Z,1005.53
2023-03-05T10:03:26.212Z,1005.56
2023-03-05T10:04:26.277Z,1005.44
2023-03-05T10:05:26.192Z,1005.54
2023-03-05T10:06:26.200Z,1005.58
2023-03-05T10:07:26.180Z,1005.50
2023-03-05T10:08:26.157Z,1005.46
2023-03-05T10:09:26.095Z,1005.49
2023-03-05T10:10:26.134Z,1005.41
2023-03-05T10:11:26.062Z,1005.51
2023-03-05T10:12:26.099Z,1005.41
2023-03-05T10:13:26.100Z,1005.50
2023-03-05T10:14:26.101Z,1005.52
2023-03-05T10:15:26.088Z,1005.58
2023-03-05T10:16:26.067Z,1005.57
2023-03-05T10:17:26.012Z,1005.63
2023-03-05T10:18:26.016Z,1005.44
2023-03-05T10:19:25.987Z,1005.59
2023-03-05T10:20:25.989Z,1005.56
2023-03-05T10:21:25.975Z,1005.62
2023-03-05T10:22:25.944Z,1005.62
2023-03-05T10:23:25.940Z,1005.58
2023-03-05T10:24:25.924Z,1005.58
2023-03-05T10:25:25.906Z,1005.60
2023-03-05T10:26:25.876Z,1005.68
2023-03-05T10:27:25.949Z,1005.55
2023-03-05T10:28:25.860Z,1005.51
2023-03-05T10:29:25.844Z,1005.47
2023-03-05T10:30:25.844Z,1005.43
2023-03-05T10:31:25.899Z,1005.40
2023-03-05T10:32:25.858Z,1005.43
2023-03-05T10:33:25.777Z,1005.45
2023-03-05T10:34:25.773Z,1005.41
2023-03-05T10:35:25.785Z,1005.47
2023-03-05T10:36:25.765Z,1005.43
2023-03-05T10:37:25.748Z,1005.39
2023-03-05T10:38:25.741Z,1005.39
2023-03-05T10:39:25.723Z,1005.46
2023-03-05T10:40:25.742Z,1005.36
2023-03-05T10:41:25.713Z,1005.33
2023-03-05T10:42:25.689Z,1005.54
2023-03-05T10:43:25.680Z,1005.44
2023-03-05T10:44:25.660Z,1005.39
2023-03-05T10:45:25.615Z,1005.43
2023-03-05T10:46:25.645Z,1005.34
2023-03-05T10:47:25.616Z,1005.29
2023-03-05T10:48:25.587Z,1005.26
2023-03-05T10:49:25.631Z,1005.36
2023-03-05T10:50:25.585Z,1005.30
2023-03-05T10:51:25.545Z,1005.17
2023-03-05T10:52:25.559Z,1005.28
2023-03-05T10:53:25.540Z,1005.35
2023-03-05T10:54:25.566Z,1005.29
2023-03-05T10:55:25.499Z,1005.38
2023-03-05T10:56:25.508Z,1005.33
2023-03-05T10:57:25.500Z,1005.29
2023-03-05T10:58:25.508Z,1005.38
2023-03-05T10:59:25.451Z,1005.42
2023-03-05T11:00:25.463Z,1005.26
2023-03-05T11:01:25.514Z,1005.25
2023-03-05T11:02:25.495Z,1005.29
2023-03-05T11:03:25.426Z,1005.39
2023-03-05T11:04:25.415Z,1005.25
2023-03-05T11:05:25.375Z,1005.29
2023-03-05T11:06:25.369Z,1005.19
2023-03-05T11:07:25.334Z,1005.39
2023-03-05T11:08:25.350Z,1005.35
2023-03-05T11:09:25.373Z,1005.18
2023-03-05T11:10:25.314Z,1005.21
2023-03-05T11:11:25.283Z,1005.27
2023-03-05T11:12:25.292Z,1005.15
2023-03-05T11:13:25.287Z,1005.16
2023-03-05T11:14:25.254Z,1005.17
2023-03-05T11:15:25.261Z,1005.19
2023-03-05T11:16:25.300Z,1005.21
2023-03-05T11:17:25.220Z,1005.19
2023-03-05T11:18:25.204Z,1005.20
2023-03-05T11:19:25.205Z,1005.20
2023-03-05T11:20:25.231Z,1005.14
2023-03-05T11:21:25.137Z,1005.21
2023-03-05T11:22:25.162Z,1005.45
2023-03-05T11:23:25.177Z,1005.32
2023-03-05T11:24:25.141Z,1005.39
2023-03-05T11:25:25.126Z,1005.44
2023-03-05T11:26:25.136Z,1005.29
2023-03-05T11:27:25.101Z,1005.27
2023-03-05T11:28:33.562Z,1005.37
2023-03-05T11:29:25.048Z,1005.32
2023-03-05T11:30:25.052Z,1005.32
2023-03-05T11:31:25.137Z,1005.45
2023-03-05T11:32:25.108Z,1005.43
2023-03-05T11:33:24.990Z,1005.33
2023-03-05T11:34:25.009Z,1005.30
2023-03-05T11:35:25.008Z,1005.30
2023-03-05T11:36:24.975Z,1005.27
2023-03-05T11:37:25.000Z,1005.27
2023-03-05T11:38:24.981Z,1005.20
2023-03-05T11:39:24.978Z,1005.25
2023-03-05T11:40:24.920Z,1005.21
2023-03-05T11:41:24.895Z,1005.14
2023-03-05T11:42:24.891Z,1005.20
2023-03-05T11:43:24.879Z,1005.22
2023-03-05T11:44:24.890Z,1005.23
2023-03-05T11:45:24.851Z,1005.19
2023-03-05T11:46:24.885Z,1005.12
2023-03-05T11:47:24.821Z,1005.04
2023-03-05T11:48:24.841Z,1005.04
2023-03-05T11:49:24.796Z,1005.06
2023-03-05T11:50:24.788Z,1005.06
2023-03-05T11:51:24.778Z,1005.10
2023-03-05T11:52:24.748Z,1005.05
2023-03-05T11:53:24.740Z,1004.96
2023-03-05T11:54:24.732Z,1005.04
2023-03-05T11:55:24.735Z,1005.03
2023-03-05T11:56:24.713Z,1005.00
2023-03-05T11:57:24.719Z,1004.98
2023-03-05T11:58:24.685Z,1005.03
2023-03-05T11:59:24.659Z,1004.99
2023-03-05T12:00:24.676Z,1004.87
2023-03-05T12:01:24.649Z,1004.87
2023-03-05T12:02:24.656Z,1004.87
2023-03-05T12:03:24.668Z,1004.86
2023-03-05T12:04:24.619Z,1004.80
2023-03-05T12:05:24.616Z,1004.83